Time;durP1;ratioP1;P1;durP2;ratioP2;P2;SDS_P1;SDS_P2;PMS_P1;PMS_P2;Temp;Humidity;BMP_temperature;BMP_pressure;BME280_temperature;BME280_humidity;BME280_pressure;Samples;Min_cycle;Max_cycle;Signal;HPM_P1;HPM_P2
2021/12/27 00:01:25;;;;;;;12.90;7.00;;;;;;;1.71;100.00;99895.28;5060034;28;20192;-71
2021/12/27 00:03:54;;;;;;;73.40;23.20;;;;;;;1.76;100.00;99894.66;5056140;28;20681;-68
2021/12/27 00:06:21;;;;;;;28.57;12.67;;;;;;;1.81;100.00;99897.44;5060134;28;20196;-70
2021/12/27 00:08:49;;;;;;;27.87;10.83;;;;;;;1.80;100.00;99905.91;5058201;28;20249;-70
2021/12/27 00:11:18;;;;;;;38.63;7.30;;;;;;;1.77;100.00;99903.22;5057338;28;20227;-69
2021/12/27 00:13:45;;;;;;;67.07;7.87;;;;;;;1.72;100.00;99897.88;5058555;28;20208;-69
2021/12/27 00:16:12;;;;;;;34.43;10.47;;;;;;;1.75;100.00;99892.06;5058818;28;20192;-71
2021/12/27 00:18:38;;;;;;;29.87;8.50;;;;;;;1.81;100.00;99887.22;5056891;28;20655;-69
2021/12/27 00:21:05;;;;;;;24.40;9.30;;;;;;;1.81;100.00;99892.34;5050436;28;20232;-69
2021/12/27 00:23:33;;;;;;;23.97;8.03;;;;;;;1.76;100.00;99892.13;5054307;28;20252;-70
2021/12/27 00:26:00;;;;;;;41.17;12.03;;;;;;;1.83;100.00;99899.25;5060035;28;20222;-69
2021/12/27 00:28:30;;;;;;;19.63;8.17;;;;;;;1.74;100.00;99905.63;5053639;28;20200;-71
2021/12/27 00:30:56;;;;;;;9.57;4.93;;;;;;;1.72;100.00;99912.34;5056121;28;20263;-70
2021/12/27 00:33:23;;;;;;;9.60;7.53;;;;;;;1.61;100.00;99888.84;5058001;28;20188;-70
2021/12/27 00:35:50;;;;;;;12.97;6.17;;;;;;;1.73;100.00;99912.41;5063585;28;20188;-70
2021/12/27 00:38:17;;;;;;;42.63;8.90;;;;;;;1.69;100.00;99902.84;5058999;28;20588;-69
2021/12/27 00:40:44;;;;;;;31.90;10.30;;;;;;;1.71;100.00;99895.28;5071094;28;20584;-69
2021/12/27 00:43:11;;;;;;;36.63;12.33;;;;;;;1.61;100.00;99863.28;5054891;28;20200;-69
2021/12/27 00:45:39;;;;;;;22.70;9.17;;;;;;;1.81;100.00;99885.53;5068549;28;20218;-69
2021/12/27 00:48:06;;;;;;;22.43;7.77;;;;;;;1.92;100.00;99886.03;5058716;28;20204;-70
2021/12/27 00:50:33;;;;;;;29.87;12.57;;;;;;;2.00;100.00;99877.00;5071547;28;20268;-70
2021/12/27 00:53:00;;;;;;;50.00;11.03;;;;;;;1.90;100.00;99882.53;5073713;28;20735;-70
2021/12/27 00:55:27;;;;;;;46.30;14.90;;;;;;;1.90;100.00;99896.19;5064084;28;20191;-69
2021/12/27 00:57:54;;;;;;;26.87;12.50;;;;;;;1.99;100.00;99893.19;5065841;28;20188;-70
2021/12/27 01:00:23;;;;;;;13.43;6.43;;;;;;;1.94;100.00;99912.53;5060954;28;20283;-69
2021/12/27 01:02:53;;;;;;;38.13;13.97;;;;;;;1.91;100.00;99904.72;5073768;28;20195;-70
2021/12/27 01:05:21;;;;;;;89.97;14.67;;;;;;;2.00;100.00;99935.81;5072113;28;20219;-69
2021/12/27 01:07:48;;;;;;;45.97;13.13;;;;;;;1.96;100.00;99928.84;5073518;28;20613;-69
2021/12/27 01:13:18;;;;;;;51.27;12.77;;;;;;;1.91;100.00;99945.63;5072400;28;20248;-70
2021/12/27 01:15:51;;;;;;;137.50;18.20;;;;;;;1.97;100.00;99944.22;5058097;28;20192;-69
2021/12/27 01:18:21;;;;;;;20.17;9.37;;;;;;;1.92;100.00;99940.59;5053519;28;20249;-70
2021/12/27 01:20:48;;;;;;;11.70;5.90;;;;;;;1.80;100.00;99928.91;5033724;28;20294;-69
2021/12/27 01:23:15;;;;;;;40.40;11.07;;;;;;;1.84;100.00;99929.13;5052332;28;20202;-70
2021/12/27 01:25:41;;;;;;;41.63;13.20;;;;;;;1.90;100.00;99928.53;5066041;28;20237;-69
2021/12/27 01:28:09;;;;;;;28.87;10.73;;;;;;;1.82;100.00;99922.22;5065190;28;20617;-69
2021/12/27 01:30:45;;;;;;;18.57;6.30;;;;;;;1.69;100.00;99923.28;5072890;28;20251;-69
2021/12/27 01:33:12;;;;;;;22.37;6.80;;;;;;;1.64;100.00;99909.41;5072975;28;20210;-70
2021/12/27 01:35:41;;;;;;;22.43;7.60;;;;;;;1.81;100.00;99917.91;5068355;28;20206;-69
2021/12/27 01:38:07;;;;;;;67.73;15.13;;;;;;;1.94;100.00;99909.97;5071619;28;20201;-70
2021/12/27 01:40:34;;;;;;;20.17;8.33;;;;;;;1.95;100.00;99922.84;5070905;28;20191;-69
2021/12/27 01:43:08;;;;;;;102.90;13.57;;;;;;;1.98;100.00;99919.53;5055095;28;20196;-70
2021/12/27 01:45:38;;;;;;;21.23;9.03;;;;;;;1.98;100.00;99909.31;5057610;28;20231;-69
2021/12/27 01:48:07;;;;;;;74.60;15.33;;;;;;;1.95;100.00;99906.63;5053899;28;20608;-70
2021/12/27 01:50:35;;;;;;;41.60;11.47;;;;;;;1.90;100.00;99913.19;5064366;28;20196;-69
2021/12/27 01:53:05;;;;;;;36.93;13.27;;;;;;;1.88;100.00;99922.47;5053274;28;20199;-69
2021/12/27 01:55:32;;;;;;;23.50;10.93;;;;;;;1.81;100.00;99913.66;5052672;28;20195;-69
2021/12/27 01:57:59;;;;;;;16.97;9.33;;;;;;;1.89;100.00;99908.91;5066970;28;20198;-69
2021/12/27 02:00:26;;;;;;;58.20;12.93;;;;;;;1.88;100.00;99919.94;5056280;28;20196;-69
2021/12/27 02:02:53;;;;;;;38.57;7.60;;;;;;;1.79;100.00;99909.25;5053705;28;20195;-69
2021/12/27 02:05:20;;;;;;;12.60;7.93;;;;;;;1.54;100.00;99891.03;5063115;28;20214;-69
2021/12/27 02:07:47;;;;;;;56.97;11.03;;;;;;;1.67;100.00;99909.59;5072261;28;20195;-69
2021/12/27 02:10:16;;;;;;;21.40;6.70;;;;;;;1.68;100.00;99905.31;5072446;28;20187;-70
2021/12/27 02:12:43;;;;;;;33.53;6.90;;;;;;;1.60;100.00;99914.31;5071415;28;20198;-69
2021/12/27 02:15:11;;;;;;;111.87;15.13;;;;;;;1.69;100.00;99907.09;5065793;28;20195;-69
2021/12/27 02:17:39;;;;;;;42.83;12.20;;;;;;;1.73;100.00;99899.66;5068811;28;20748;-69
2021/12/27 02:20:09;;;;;;;30.83;7.97;;;;;;;1.72;100.00;99914.88;5052105;28;20725;-69
2021/12/27 02:22:39;;;;;;;129.97;14.90;;;;;;;1.86;100.00;99921.50;5052348;28;20210;-70
2021/12/27 02:25:07;;;;;;;34.13;10.93;;;;;;;1.83;100.00;99916.28;5037379;28;20237;-69
2021/12/27 02:27:34;;;;;;;39.30;10.30;;;;;;;1.82;100.00;99928.16;5053947;28;20586;-69
2021/12/27 02:30:02;;;;;;;37.43;12.53;;;;;;;1.73;100.00;99899.66;5068228;28;20252;-69
2021/12/27 02:32:30;;;;;;;39.80;10.83;;;;;;;1.74;100.00;99910.75;5055700;28;20195;-69
2021/12/27 02:34:57;;;;;;;13.73;6.10;;;;;;;1.54;100.00;99886.78;5052435;28;20204;-70
2021/12/27 02:37:25;;;;;;;32.40;9.40;;;;;;;1.70;100.00;99912.28;5061104;28;20748;-69
2021/12/27 02:39:52;;;;;;;19.47;7.00;;;;;;;1.72;100.00;99910.66;5072354;28;20195;-69
2021/12/27 02:42:19;;;;;;;23.80;8.80;;;;;;;1.73;100.00;99911.53;5070452;28;20560;-70
2021/12/27 02:44:46;;;;;;;23.20;10.37;;;;;;;1.83;100.00;99911.16;5063574;28;20195;-69
2021/12/27 02:47:16;;;;;;;21.93;8.27;;;;;;;1.79;100.00;99901.59;5071658;28;20195;-69
2021/12/27 02:49:43;;;;;;;15.53;6.53;;;;;;;1.68;100.00;99903.66;5071239;28;20264;-69
2021/12/27 02:52:10;;;;;;;30.33;6.90;;;;;;;1.70;100.00;99899.50;5071048;28;20660;-69
2021/12/27 02:54:42;;;;;;;23.10;6.03;;;;;;;1.71;100.00;99905.50;5072111;28;20223;-69
2021/12/27 02:57:10;;;;;;;36.17;7.40;;;;;;;1.66;100.00;99907.81;5052900;28;20203;-69
2021/12/27 02:59:37;;;;;;;13.47;5.27;;;;;;;1.58;100.00;99903.16;5059685;28;20187;-70
2021/12/27 03:02:04;;;;;;;41.23;6.33;;;;;;;1.56;100.00;99894.53;5059939;28;20194;-69
2021/12/27 03:04:36;;;;;;;57.83;9.57;;;;;;;1.63;100.00;99886.38;5063845;28;20663;-69
2021/12/27 03:07:03;;;;;;;31.07;6.93;;;;;;;1.62;100.00;99887.16;5052479;28;20206;-70
2021/12/27 03:09:30;;;;;;;126.40;12.93;;;;;;;1.70;100.00;99878.19;5069077;28;20210;-69
2021/12/27 03:11:58;;;;;;;50.57;9.70;;;;;;;1.76;100.00;99874.22;5070941;28;20690;-70
2021/12/27 03:14:25;;;;;;;100.40;11.23;;;;;;;1.57;100.00;99875.88;5067580;28;20199;-69
2021/12/27 03:16:51;;;;;;;28.33;10.63;;;;;;;1.75;100.00;99892.06;5071271;28;20597;-69
2021/12/27 03:19:18;;;;;;;28.70;9.50;;;;;;;1.85;100.00;99900.22;5053476;28;20195;-71
2021/12/27 03:21:45;;;;;;;13.37;6.07;;;;;;;1.84;100.00;99897.59;5051600;28;20285;-70
2021/12/27 03:24:12;;;;;;;60.07;8.90;;;;;;;1.75;100.00;99872.47;5051527;28;20196;-70
2021/12/27 03:26:38;;;;;;;40.63;8.13;;;;;;;1.60;100.00;99876.88;5051288;28;20721;-70
2021/12/27 03:29:06;;;;;;;59.87;12.70;;;;;;;1.63;100.00;99886.38;5063375;28;20260;-71
2021/12/27 03:31:36;;;;;;;57.73;11.40;;;;;;;1.69;100.00;99877.31;5052320;28;20210;-70
2021/12/27 03:34:03;;;;;;;58.37;9.33;;;;;;;1.75;100.00;99900.56;5058029;28;20222;-70
2021/12/27 03:36:37;;;;;;;17.50;7.57;;;;;;;1.66;100.00;99906.94;5069295;28;20195;-70
2021/12/27 03:39:06;;;;;;;68.17;13.17;;;;;;;1.91;100.00;99932.84;5057081;28;20666;-70
2021/12/27 03:41:33;;;;;;;80.77;12.63;;;;;;;1.83;100.00;99935.03;5051249;28;20195;-70
2021/12/27 03:43:59;;;;;;;36.90;7.13;;;;;;;1.71;100.00;99936.16;5051320;28;20206;-70
2021/12/27 03:46:28;;;;;;;82.83;8.83;;;;;;;1.59;100.00;99916.00;5051334;28;20674;-70
2021/12/27 03:48:55;;;;;;;101.37;8.93;;;;;;;1.67;100.00;99918.94;5062814;28;20198;-69
2021/12/27 03:51:22;;;;;;;11.33;5.90;;;;;;;1.66;100.00;99920.59;5052677;28;20592;-70
2021/12/27 03:53:49;;;;;;;26.93;8.70;;;;;;;1.61;100.00;99910.94;5070217;28;20191;-70
2021/12/27 03:56:16;;;;;;;119.70;11.63;;;;;;;1.67;100.00;99916.38;5071844;28;20199;-70
2021/12/27 03:58:53;;;;;;;96.03;11.50;;;;;;;1.71;100.00;99925.94;5059597;28;20245;-69
2021/12/27 04:01:21;;;;;;;176.37;14.80;;;;;;;1.72;100.00;99927.66;5051067;28;20670;-69
2021/12/27 04:03:52;;;;;;;18.63;6.43;;;;;;;1.76;100.00;99925.34;5056140;28;20195;-70
2021/12/27 04:06:21;;;;;;;110.30;14.00;;;;;;;1.83;100.00;99917.16;5074922;28;20234;-69
2021/12/27 04:08:49;;;;;;;92.43;9.60;;;;;;;1.70;100.00;99908.84;5068202;28;20190;-71
2021/12/27 04:11:16;;;;;;;51.57;10.13;;;;;;;1.79;100.00;99916.94;5063126;28;20199;-69
2021/12/27 04:13:43;;;;;;;202.67;16.50;;;;;;;1.72;100.00;99909.78;5059858;28;20254;-69
2021/12/27 04:16:09;;;;;;;27.13;6.23;;;;;;;1.77;100.00;99916.00;5074581;28;20201;-69
2021/12/27 04:18:36;;;;;;;40.53;10.43;;;;;;;1.71;100.00;99916.56;5073027;28;20202;-69
2021/12/27 04:21:05;;;;;;;54.70;10.43;;;;;;;1.59;100.00;99902.34;5074203;28;20234;-69
2021/12/27 04:23:32;;;;;;;36.03;6.57;;;;;;;1.55;100.00;99914.09;5060920;28;20207;-71
2021/12/27 04:25:58;;;;;;;86.80;10.40;;;;;;;1.63;100.00;99917.03;5073536;28;20280;-69
2021/12/27 04:28:25;;;;;;;84.80;13.43;;;;;;;1.67;100.00;99903.59;5074591;28;20198;-70
2021/12/27 04:30:52;;;;;;;94.83;11.63;;;;;;;1.77;100.00;99916.00;5059227;28;20249;-70
2021/12/27 04:33:19;;;;;;;130.53;10.30;;;;;;;1.76;100.00;99904.00;5054729;28;20200;-70
2021/12/27 04:35:46;;;;;;;21.70;5.00;;;;;;;1.74;100.00;99906.50;5071581;28;20198;-69
2021/12/27 04:38:14;;;;;;;82.63;12.23;;;;;;;1.67;100.00;99912.13;5074015;28;20191;-69
2021/12/27 04:40:44;;;;;;;60.87;8.67;;;;;;;1.78;100.00;99898.19;5073972;28;20191;-69
2021/12/27 04:43:13;;;;;;;33.30;6.40;;;;;;;1.63;100.00;99906.81;5062561;28;20195;-70
2021/12/27 04:45:41;;;;;;;103.23;13.77;;;;;;;1.70;100.00;99911.41;5070595;28;20705;-69
2021/12/27 04:48:07;;;;;;;58.00;10.50;;;;;;;1.65;100.00;99907.75;5072363;28;20272;-69
2021/12/27 04:50:35;;;;;;;129.27;13.10;;;;;;;1.77;100.00;99916.88;5054433;28;20195;-69
2021/12/27 04:53:02;;;;;;;28.80;8.93;;;;;;;1.77;100.00;99911.75;5054127;28;20200;-70
2021/12/27 04:55:30;;;;;;;84.07;10.00;;;;;;;1.89;100.00;99916.56;5062537;28;20670;-69
2021/12/27 04:57:58;;;;;;;148.83;13.23;;;;;;;1.86;100.00;99898.50;5053874;28;20191;-69
2021/12/27 05:00:25;;;;;;;39.97;9.97;;;;;;;1.79;100.00;99902.47;5054601;28;20202;-69
2021/12/27 05:02:52;;;;;;;142.93;13.27;;;;;;;1.88;100.00;99904.59;5057760;28;20192;-69
2021/12/27 05:05:19;;;;;;;151.50;13.17;;;;;;;1.88;100.00;99902.03;5066960;28;20198;-69
2021/12/27 05:07:47;;;;;;;68.73;13.50;;;;;;;2.02;100.00;99915.44;5065587;28;20202;-69
2021/12/27 05:10:16;;;;;;;71.77;8.90;;;;;;;1.89;100.00;99912.31;5053998;28;20215;-69
2021/12/27 05:12:44;;;;;;;66.80;12.37;;;;;;;2.03;100.00;99918.09;5036726;28;20728;-70
2021/12/27 05:15:12;;;;;;;64.53;12.47;;;;;;;1.96;100.00;99916.91;5065581;28;20681;-70
2021/12/27 05:17:39;;;;;;;134.00;13.80;;;;;;;1.90;100.00;99921.75;5071529;28;20573;-69
2021/12/27 05:20:09;;;;;;;11.93;6.47;;;;;;;1.78;100.00;99912.66;5073162;28;20713;-70
2021/12/27 05:22:36;;;;;;;42.33;5.87;;;;;;;1.68;100.00;99910.44;5073203;28;20282;-69
2021/12/27 05:25:04;;;;;;;184.70;12.93;;;;;;;1.70;100.00;99919.06;5061632;28;20196;-69
2021/12/27 05:27:32;;;;;;;41.07;6.93;;;;;;;1.59;100.00;99915.13;5053265;28;20224;-69
2021/12/27 05:30:00;;;;;;;114.43;12.37;;;;;;;1.66;100.00;99912.06;5054689;28;20200;-69
2021/12/27 05:32:27;;;;;;;187.33;16.87;;;;;;;1.70;100.00;99908.84;5053859;28;20635;-70
2021/12/27 05:34:53;;;;;;;136.50;15.37;;;;;;;1.79;100.00;99896.47;5062733;28;20632;-68
2021/12/27 05:37:20;;;;;;;94.03;11.23;;;;;;;1.84;100.00;99912.91;5072966;28;20734;-68
2021/12/27 05:39:48;;;;;;;28.33;5.60;;;;;;;1.82;100.00;99901.75;5072819;28;20195;-69
2021/12/27 05:42:14;;;;;;;8.03;3.67;;;;;;;1.72;100.00;99897.00;5036804;28;20227;-69
2021/12/27 05:44:41;;;;;;;152.83;14.47;;;;;;;1.81;100.00;99913.66;5065486;28;20203;-69
2021/12/27 05:47:09;;;;;;;104.30;13.77;;;;;;;1.75;100.00;99902.28;5068141;28;20284;-69
2021/12/27 05:49:36;;;;;;;164.40;14.70;;;;;;;1.88;100.00;99922.47;5054438;28;20625;-68
2021/12/27 05:52:04;;;;;;;52.83;11.43;;;;;;;1.83;100.00;99911.16;5052820;28;20624;-69
2021/12/27 05:54:31;;;;;;;46.13;11.60;;;;;;;1.98;100.00;99922.97;5058698;28;20195;-68
2021/12/27 05:56:57;;;;;;;74.70;9.63;;;;;;;1.82;100.00;99914.53;5072686;28;20190;-69
2021/12/27 05:59:24;;;;;;;70.47;10.03;;;;;;;1.88;100.00;99914.81;5062991;28;20196;-69
2021/12/27 06:01:51;;;;;;;158.47;14.00;;;;;;;1.90;100.00;99915.75;5056828;28;20191;-69
2021/12/27 06:04:19;;;;;;;56.93;11.37;;;;;;;1.92;100.00;99917.59;5060709;28;20187;-69
2021/12/27 06:06:46;;;;;;;60.27;10.37;;;;;;;1.93;100.00;99919.31;5053587;28;20288;-70
2021/12/27 06:09:13;;;;;;;24.13;7.17;;;;;;;1.68;100.00;99908.75;5059467;28;20201;-69
2021/12/27 06:11:39;;;;;;;94.77;10.03;;;;;;;1.74;100.00;99920.97;5072690;28;20661;-70
2021/12/27 06:14:06;;;;;;;69.40;11.23;;;;;;;1.78;100.00;99912.66;5055408;28;20199;-70
2021/12/27 06:16:33;;;;;;;91.30;14.27;;;;;;;1.97;100.00;99905.88;5067096;28;20205;-69
2021/12/27 06:19:00;;;;;;;22.57;6.20;;;;;;;2.13;100.00;99898.91;5071731;28;20252;-70
2021/12/27 06:21:28;;;;;;;45.43;7.73;;;;;;;1.87;100.00;99895.16;5069448;28;20288;-70
2021/12/27 06:23:55;;;;;;;72.30;9.97;;;;;;;1.72;100.00;99897.00;5068689;28;20206;-70
2021/12/27 06:26:22;;;;;;;80.03;12.07;;;;;;;1.83;100.00;99900.94;5070357;28;20287;-70
2021/12/27 06:28:48;;;;;;;46.07;6.63;;;;;;;1.84;100.00;99901.03;5070549;28;20245;-69
2021/12/27 06:31:15;;;;;;;22.93;5.67;;;;;;;1.77;100.00;99905.78;5070364;28;20192;-71
2021/12/27 06:33:42;;;;;;;117.50;14.30;;;;;;;1.75;100.00;99886.94;5060262;28;20187;-70
2021/12/27 06:36:09;;;;;;;101.83;11.17;;;;;;;1.80;100.00;99898.25;5064150;28;20199;-70
2021/12/27 06:38:37;;;;;;;83.03;14.70;;;;;;;2.06;100.00;99895.22;5071675;28;20708;-70
2021/12/27 06:41:04;;;;;;;101.50;15.17;;;;;;;2.17;100.00;99894.03;5064598;28;20264;-70
2021/12/27 06:43:31;;;;;;;108.37;15.70;;;;;;;2.26;100.00;99902.09;5058732;28;20200;-72
2021/12/27 06:45:58;;;;;;;57.03;13.47;;;;;;;2.20;100.00;99899.25;5067612;28;20260;-72
2021/12/27 06:48:25;;;;;;;33.23;7.57;;;;;;;2.05;100.00;99913.91;5059965;28;20269;-73
2021/12/27 06:50:52;;;;;;;63.73;12.17;;;;;;;1.89;100.00;99911.47;5051333;28;20184;-73
2021/12/27 06:53:19;;;;;;;139.50;14.93;;;;;;;2.01;100.00;99924.78;5051397;28;20595;-71
2021/12/27 06:55:48;;;;;;;205.17;18.37;;;;;;;2.15;100.00;99940.75;5050652;28;20191;-71
2021/12/27 06:58:16;;;;;;;66.20;15.17;;;;;;;2.10;100.00;99937.13;5053143;28;20187;-72
2021/12/27 07:00:43;;;;;;;62.23;15.57;;;;;;;2.30;100.00;99888.63;5052687;28;20187;-72
2021/12/27 07:03:11;;;;;;;63.20;19.07;;;;;;;2.67;100.00;99924.38;5053129;28;20199;-73
2021/12/27 07:05:37;;;;;;;311.07;19.30;;;;;;;2.62;100.00;99919.84;5046405;28;20197;-73
2021/12/27 07:08:05;;;;;;;47.53;14.47;;;;;;;2.62;100.00;99917.31;5051339;28;20704;-72
2021/12/27 07:10:32;;;;;;;88.30;15.27;;;;;;;2.49;100.00;99921.91;5051467;28;20192;-73
2021/12/27 07:13:02;;;;;;;150.10;14.80;;;;;;;2.30;100.00;99921.00;5051207;28;20195;-72
2021/12/27 07:15:29;;;;;;;131.87;16.00;;;;;;;2.27;100.00;99919.19;5052018;28;20195;-73
2021/12/27 07:17:56;;;;;;;95.23;12.00;;;;;;;2.13;100.00;99901.47;5052102;28;20199;-72
2021/12/27 07:20:22;;;;;;;32.37;9.23;;;;;;;1.98;100.00;99896.53;5051242;28;20229;-73
2021/12/27 07:22:49;;;;;;;15.50;5.73;;;;;;;1.76;100.00;99881.00;5061237;28;20660;-73
2021/12/27 07:25:18;;;;;;;16.73;6.43;;;;;;;1.66;100.00;99879.72;5051138;28;20210;-74
2021/12/27 07:27:44;;;;;;;173.87;15.30;;;;;;;1.73;100.00;99883.44;5050885;28;20223;-73
2021/12/27 07:30:13;;;;;;;69.77;17.97;;;;;;;1.92;100.00;99888.59;5051822;28;20200;-74
2021/12/27 07:32:40;;;;;;;89.47;14.57;;;;;;;1.62;100.00;99820.72;5057761;28;20236;-74
2021/12/27 07:35:08;;;;;;;30.00;8.67;;;;;;;1.96;100.00;99878.56;5066272;28;20203;-72
2021/12/27 07:37:35;;;;;;;128.43;21.57;;;;;;;2.00;100.00;99874.47;5036128;28;20196;-72
2021/12/27 07:40:02;;;;;;;255.43;18.53;;;;;;;2.13;100.00;99876.78;5044486;28;20214;-74
2021/12/27 07:42:29;;;;;;;154.30;15.93;;;;;;;2.49;100.00;99888.63;5074586;28;20198;-74
2021/12/27 07:44:56;;;;;;;23.93;9.60;;;;;;;2.44;100.00;99887.56;5075582;28;20252;-72
2021/12/27 07:47:24;;;;;;;29.37;9.50;;;;;;;2.22;100.00;99884.84;5068431;28;20231;-74
2021/12/27 07:49:51;;;;;;;69.60;11.90;;;;;;;2.80;100.00;99884.81;5055987;28;20207;-72
2021/12/27 07:52:18;;;;;;;56.83;10.43;;;;;;;2.30;100.00;99891.19;5055596;28;20191;-72
2021/12/27 07:54:44;;;;;;;88.90;18.40;;;;;;;2.34;100.00;99877.72;5055497;28;20324;-74
2021/12/27 07:57:12;;;;;;;47.57;11.93;;;;;;;2.23;100.00;99881.50;5056261;28;20191;-72
2021/12/27 07:59:39;;;;;;;68.27;16.50;;;;;;;2.09;100.00;99868.91;5054048;28;20282;-73
2021/12/27 08:02:06;;;;;;;125.33;14.03;;;;;;;2.10;100.00;99889.44;5035120;28;20196;-72
2021/12/27 08:04:35;;;;;;;23.40;7.53;;;;;;;1.95;100.00;99886.16;5034607;28;20193;-72
2021/12/27 08:07:01;;;;;;;103.60;32.67;;;;;;;1.95;100.00;99868.28;5037643;28;20639;-74
2021/12/27 08:09:28;;;;;;;74.57;13.60;;;;;;;2.43;100.00;99870.44;5034164;28;20203;-73
2021/12/27 08:11:55;;;;;;;170.70;18.70;;;;;;;2.17;100.00;99857.34;5034218;28;20196;-74
2021/12/27 08:14:22;;;;;;;53.10;7.77;;;;;;;2.09;100.00;99864.66;5034137;28;20569;-74
2021/12/27 08:16:49;;;;;;;122.90;13.73;;;;;;;2.11;100.00;99868.16;5068191;28;20252;-73
2021/12/27 08:19:16;;;;;;;75.27;15.60;;;;;;;2.06;100.00;99866.22;5034666;28;20204;-74
2021/12/27 08:21:44;;;;;;;53.30;14.83;;;;;;;2.11;100.00;99870.69;5034344;28;20228;-73
2021/12/27 08:24:11;;;;;;;48.83;11.10;;;;;;;1.96;100.00;99865.78;5042060;28;20199;-74
2021/12/27 08:26:38;;;;;;;18.57;6.93;;;;;;;1.97;100.00;99866.66;5069566;28;20241;-73
2021/12/27 08:29:07;;;;;;;29.07;8.37;;;;;;;1.96;100.00;99870.03;5074865;28;20195;-74
2021/12/27 08:31:34;;;;;;;45.80;8.67;;;;;;;1.91;100.00;99863.84;5074504;28;20593;-73
2021/12/27 08:34:01;;;;;;;29.73;7.97;;;;;;;1.87;100.00;99862.81;5074649;28;20252;-73
2021/12/27 08:36:28;;;;;;;91.20;14.17;;;;;;;1.91;100.00;99848.50;5060522;28;20666;-74
2021/12/27 08:38:56;;;;;;;28.63;6.93;;;;;;;1.85;100.00;99843.13;5042863;28;20227;-73
2021/12/27 08:41:27;;;;;;;72.00;11.27;;;;;;;1.84;100.00;99841.34;5046267;28;20202;-73
2021/12/27 08:43:55;;;;;;;109.53;16.00;;;;;;;2.08;100.00;99850.13;5054933;28;20682;-73
2021/12/27 08:46:22;;;;;;;25.57;8.27;;;;;;;1.94;100.00;99858.84;5062055;28;20285;-71
2021/12/27 08:48:48;;;;;;;87.90;10.33;;;;;;;2.06;100.00;99858.53;5053334;28;20193;-73
2021/12/27 08:51:15;;;;;;;201.03;17.83;;;;;;;2.21;100.00;99834.50;5054430;28;20195;-72
2021/12/27 08:53:42;;;;;;;143.33;19.23;;;;;;;2.32;100.00;99855.47;5054431;28;20199;-72
2021/12/27 08:56:10;;;;;;;39.83;11.97;;;;;;;2.37;100.00;99847.16;5063914;28;20252;-69
2021/12/27 08:58:37;;;;;;;59.93;12.33;;;;;;;2.19;100.00;99851.47;5061407;28;20211;-70
2021/12/27 09:01:06;;;;;;;253.47;17.53;;;;;;;2.23;100.00;99840.56;5051200;28;20218;-68
2021/12/27 09:03:32;;;;;;;54.07;7.33;;;;;;;2.09;100.00;99815.19;5055105;28;20270;-70
2021/12/27 09:05:59;;;;;;;15.93;5.13;;;;;;;2.11;100.00;99801.66;5046290;28;20207;-70
2021/12/27 09:08:26;;;;;;;82.17;7.33;;;;;;;2.05;100.00;99815.88;5052445;28;20223;-71
2021/12/27 09:10:57;;;;;;;322.20;23.30;;;;;;;2.12;100.00;99818.78;5053686;28;20203;-71
2021/12/27 09:13:26;;;;;;;110.07;10.13;;;;;;;2.28;100.00;99828.00;5052994;28;20195;-71
2021/12/27 09:15:53;;;;;;;29.43;8.13;;;;;;;2.19;100.00;99825.91;5060609;28;20689;-71
2021/12/27 09:18:20;;;;;;;142.10;21.10;;;;;;;2.33;100.00;99824.81;5054217;28;20207;-71
2021/12/27 09:20:47;;;;;;;173.73;21.13;;;;;;;2.35;100.00;99814.66;5037966;28;20230;-72
2021/12/27 09:23:13;;;;;;;173.23;15.87;;;;;;;2.43;100.00;99810.72;5051147;28;20199;-73
2021/12/27 09:25:42;;;;;;;178.00;18.93;;;;;;;2.36;100.00;99807.03;5051707;28;20192;-72
2021/12/27 09:28:09;;;;;;;71.90;10.87;;;;;;;2.41;100.00;99805.56;5046490;28;20317;-73
2021/12/27 09:30:37;;;;;;;123.10;10.77;;;;;;;2.30;100.00;99817.00;5041310;28;20197;-73
2021/12/27 09:33:05;;;;;;;103.00;13.77;;;;;;;2.55;100.00;99803.59;5031685;28;20200;-73
2021/12/27 09:35:32;;;;;;;155.63;16.67;;;;;;;2.68;100.00;99799.84;5031255;28;20232;-72
2021/12/27 09:37:59;;;;;;;181.07;15.83;;;;;;;2.47;100.00;99810.94;5039414;28;20200;-72
2021/12/27 09:40:26;;;;;;;62.30;13.13;;;;;;;2.46;100.00;99809.16;5032258;28;20204;-72
2021/12/27 09:42:53;;;;;;;34.57;11.53;;;;;;;2.46;100.00;99810.88;5030562;28;20200;-71
2021/12/27 09:45:22;;;;;;;115.47;12.63;;;;;;;2.37;100.00;99801.13;5044945;28;20994;-71
2021/12/27 09:47:51;;;;;;;197.70;17.53;;;;;;;2.49;100.00;99806.78;5037645;28;20235;-71
2021/12/27 09:50:23;;;;;;;21.97;7.03;;;;;;;2.25;100.00;99795.47;5032305;28;20200;-71
2021/12/27 09:52:50;;;;;;;18.23;8.60;;;;;;;2.16;100.00;99795.09;5032038;28;20275;-71
2021/12/27 09:55:17;;;;;;;43.87;10.87;;;;;;;2.07;100.00;99784.44;5031304;28;20196;-72
2021/12/27 09:57:44;;;;;;;54.07;13.57;;;;;;;2.16;100.00;99773.75;5040962;28;20210;-71
2021/12/27 10:00:12;;;;;;;71.53;11.50;;;;;;;2.27;100.00;99783.63;5031716;28;20718;-72
2021/12/27 10:02:40;;;;;;;37.83;14.73;;;;;;;2.37;100.00;99795.13;5039299;28;20253;-72
2021/12/27 10:05:09;;;;;;;81.63;13.10;;;;;;;2.38;100.00;99787.53;5034454;28;20200;-73
2021/12/27 10:07:41;;;;;;;96.97;15.43;;;;;;;2.30;100.00;99788.88;5063241;28;20218;-73
2021/12/27 10:10:10;;;;;;;37.27;13.37;;;;;;;2.45;100.00;99793.78;5057293;28;20195;-72
2021/12/27 10:12:37;;;;;;;27.97;10.03;;;;;;;2.56;100.00;99807.00;5049983;28;20568;-73
2021/12/27 10:15:07;;;;;;;25.23;6.27;;;;;;;2.32;100.00;99805.16;5051881;28;20924;-74
2021/12/27 10:17:37;;;;;;;35.73;11.17;;;;;;;2.38;100.00;99802.00;5052718;28;20324;-73
2021/12/27 10:20:13;;;;;;;40.33;13.13;;;;;;;2.59;100.00;99782.44;5054719;28;20216;-74
2021/12/27 10:22:41;;;;;;;43.43;14.97;;;;;;;2.44;100.00;99751.09;5051743;28;20217;-72
2021/12/27 10:25:15;;;;;;;33.73;9.63;;;;;;;2.59;100.00;99768.75;5051868;28;20628;-72
2021/12/27 10:27:42;;;;;;;10.57;5.67;;;;;;;2.13;100.00;99707.16;5054604;28;20222;-73
2021/12/27 10:30:12;;;;;;;23.77;8.93;;;;;;;2.11;100.00;99701.94;5072470;28;20199;-71
2021/12/27 10:32:38;;;;;;;26.83;9.87;;;;;;;2.61;100.00;99759.44;5064631;28;20206;-72
2021/12/27 10:35:08;;;;;;;20.67;6.80;;;;;;;2.44;100.00;99761.31;5072170;28;20626;-72
2021/12/27 10:37:37;;;;;;;95.37;13.00;;;;;;;2.64;100.00;99769.84;5050824;28;20204;-73
2021/12/27 10:40:06;;;;;;;183.53;15.90;;;;;;;2.71;100.00;99779.50;5051790;28;20206;-73
2021/12/27 10:42:36;;;;;;;21.50;6.63;;;;;;;2.57;100.00;99771.25;5050951;28;20211;-73
2021/12/27 10:45:05;;;;;;;32.00;9.50;;;;;;;2.53;100.00;99765.97;5041323;28;20687;-74
2021/12/27 10:47:38;;;;;;;22.77;12.37;;;;;;;2.55;100.00;99761.75;5031764;28;20295;-72
2021/12/27 10:50:17;;;;;;;26.07;11.50;;;;;;;2.63;100.00;99758.72;5032232;28;20202;-73
2021/12/27 10:52:49;;;;;;;14.50;8.37;;;;;;;2.33;100.00;99722.50;5050005;28;20203;-72
2021/12/27 10:55:18;;;;;;;22.70;10.47;;;;;;;2.60;100.00;99752.59;5065038;28;20195;-73
2021/12/27 10:57:45;;;;;;;25.03;13.17;;;;;;;2.63;100.00;99758.72;5066162;28;20183;-72
2021/12/27 11:00:23;;;;;;;25.60;12.10;;;;;;;2.57;100.00;99755.03;5052042;28;20199;-72
2021/12/27 11:02:51;;;;;;;39.10;12.83;;;;;;;2.37;100.00;99719.25;5031553;28;20204;-72
2021/12/27 11:05:21;;;;;;;58.23;16.97;;;;;;;2.56;100.00;99733.69;5031231;28;20563;-72
2021/12/27 11:07:49;;;;;;;34.50;15.93;;;;;;;2.51;100.00;99742.84;5042000;28;20663;-72
2021/12/27 11:10:16;;;;;;;58.53;18.37;;;;;;;2.42;100.00;99733.13;5050873;28;20690;-71
2021/12/27 11:12:43;;;;;;;36.13;12.57;;;;;;;2.44;100.00;99734.06;5049703;28;20196;-72
2021/12/27 11:15:11;;;;;;;20.93;8.00;;;;;;;2.40;100.00;99734.72;5051170;28;20210;-73
2021/12/27 11:17:39;;;;;;;43.27;16.43;;;;;;;2.20;100.00;99720.25;5050267;28;20285;-74
2021/12/27 11:20:09;;;;;;;18.80;9.90;;;;;;;2.31;100.00;99742.03;5071441;28;20211;-74
2021/12/27 11:22:38;;;;;;;26.97;13.40;;;;;;;2.26;100.00;99720.50;5066849;28;20209;-73
2021/12/27 11:25:09;;;;;;;35.57;12.67;;;;;;;2.48;100.00;99723.13;5071591;28;20198;-73